Mfa Financial Inc (MFA) Latest Bloomsberg Price


Mffais Ranking #481 Overall / #7 Industry
Industry: Mortgage Finance

Number of Companies: 173 (Ranking #984 Overall/#8 Industry)
Inflow: $ 48,729 (K) (Ranking #1327 Overall/#11 Industry)
Outflow: $ -37,936 (K)
Mffais Flow: $ 10,792 (K) (Ranking #481 Overall/#7 Industry)


Receive a FREE weekly executive review of stocks moving into the top 10, taking the top industy spot or moving up within their industry. Sent directly to your Inbox every Saturday. Sign up today and get last week's review immediately sent to you.

We value and respect your privacy. Please read our Terms and Conditions which states our firm commitment to your privacy. Your email address will not be shared with a third party, nor will it be sold or used for purposes other than subscription for the weekly review.

Owner CPOR Shares Action Qty Chg Invested (K) Total Current Value (K)
Martingale Asset Management L P 2016-09-30 1,151,541 Added More 899,641 $ 6,747 $ 8,636
Bessemer Group Inc 2016-09-30 751,240 New Holding 751,240 $ 5,634 $ 5,634
Qs Investors Llc 2016-09-30 1,497,958 Added More 672,809 $ 5,046 $ 11,234
C M Bidwell Associates Ltd 2016-09-30 502,005 New Holding 502,005 $ 3,765 $ 3,765
Affinity Investment Advisors Llc 2016-09-30 473,890 New Holding 473,890 $ 3,554 $ 3,554
Parametric Portfolio Associates Llc 2016-09-30 2,433,992 Added More 459,582 $ 3,446 $ 18,254
New York State Common Retirement Fund 2016-09-30 1,198,240 Added More 318,640 $ 2,389 $ 8,986
Seabridge Investment Advisors Llc 2016-09-30 281,140 New Holding 281,140 $ 2,108 $ 2,108
Aperio Group Llc 2016-09-30 6,606,570 Added More 264,645 $ 1,984 $ 49,549
Denali Advisors Llc 2016-09-30 180,100 New Holding 180,100 $ 1,350 $ 1,350
Old Mutual Global Investors Uk Ltd 2016-09-30 139,025 New Holding 139,025 $ 1,042 $ 1,042
Guggenheim Capital Llc 2016-09-30 625,331 Added More 125,512 $ 941 $ 4,689
Nuveen Asset Management Llc 2016-09-30 1,438,839 Added More 120,921 $ 906 $ 10,791
Meeder Asset Management Inc 2016-09-30 117,937 New Holding 117,937 $ 884 $ 884
Global X Management Co Llc 2016-09-30 1,222,824 Added More 115,800 $ 868 $ 9,171
Nomura Asset Management Co Ltd 2016-09-30 139,200 Added More 102,600 $ 769 $ 1,044
Jane Street Group Llc 2016-09-30 110,468 Added More 83,406 $ 625 $ 828
Geneva Advisors Llc 2016-09-30 77,127 New Holding 77,127 $ 578 $ 578
Sei Investments Co 2016-09-30 198,775 Added More 73,704 $ 552 $ 1,490
Secor Capital Advisors Lp 2016-09-30 72,827 New Holding 72,827 $ 546 $ 546
Putnam Investments Llc 2016-09-30 7,009,926 Added More 61,083 $ 458 $ 52,574
Northern Trust Corp 2016-09-30 4,117,032 Added More 52,586 $ 394 $ 30,877
Comerica Bank 2016-09-30 439,466 Added More 52,282 $ 392 $ 3,295
Cipher Capital Lp 2016-09-30 362,858 Added More 41,008 $ 307 $ 2,721
Princeton Alpha Management Lp 2016-09-30 37,164 New Holding 37,164 $ 278 $ 278
Advisors Asset Management Inc 2016-09-30 270,394 Added More 37,153 $ 278 $ 2,027
Stockman Asset Management 2016-09-30 31,900 New Holding 31,900 $ 239 $ 239
Rhumbline Advisers 2016-09-30 378,091 Added More 31,169 $ 233 $ 2,835
Kcg Holdings Inc 2016-09-30 38,152 Added More 26,898 $ 201 $ 286
Tlp Group Llc 2016-09-30 22,031 Added More 18,200 $ 136 $ 165
Invictus Rg 2016-09-30 25,367 Added More 16,030 $ 120 $ 190
Two Sigma Securities Llc 2016-09-30 34,018 Added More 15,999 $ 119 $ 255
World Asset Management Inc 2016-09-30 14,681 New Holding 14,681 $ 110 $ 110
Hollow Brook Wealth Management Llc 2016-09-30 13,819 New Holding 13,819 $ 103 $ 103
Sigma Planning Corp 2016-09-30 12,821 New Holding 12,821 $ 96 $ 96
Parametrica Management Ltd 2016-09-30 12,628 New Holding 12,628 $ 94 $ 94
Creative Planning 2016-09-30 21,793 Added More 11,920 $ 89 $ 163
Blackrock Investment Management Llc 2016-09-30 193,582 Added More 11,630 $ 87 $ 1,451
Stratos Wealth Partners Ltd 2016-09-30 11,150 New Holding 11,150 $ 83 $ 83
Greenleaf Trust 2016-09-30 11,025 New Holding 11,025 $ 82 $ 82
Nwam Llc 2016-09-30 67,025 Added More 10,700 $ 80 $ 502
Vsr Financial Services Inc 2016-06-30 11,000 New Holding 11,000 $ 79 $ 79
Highpoint Advisor Group Llc 2016-09-30 10,218 New Holding 10,218 $ 76 $ 76
Prudential Plc 2016-09-30 26,600 Added More 8,800 $ 66 $ 199
Benchmark Capital Advisors 2016-09-30 257,022 Added More 8,100 $ 60 $ 1,927
Us Bancorp De 2016-09-30 51,138 Added More 7,769 $ 58 $ 383
Legal General Group Plc 2016-09-30 303,602 Added More 7,569 $ 56 $ 2,277
California State Teachers Retirement System 2016-09-30 812,301 Added More 7,400 $ 55 $ 6,092
Tower Research Capital Llc Trc 2016-09-30 7,180 New Holding 7,180 $ 53 $ 53
Crawford Investment Counsel Inc 2016-09-30 201,780 Added More 6,275 $ 47 $ 1,513
I G Investment Management Ltd 2016-09-30 68,296 Added More 6,243 $ 46 $ 512
Cambridge Investment Research Advisors Inc 2016-09-30 18,174 Added More 6,076 $ 45 $ 136
Blackrock Inc 2016-09-30 186,710 Added More 5,858 $ 43 $ 1,400
Acrospire Investment Management Llc 2016-09-30 5,740 New Holding 5,740 $ 43 $ 43
Commonwealth Equity Services Inc 2016-09-30 32,932 Added More 4,303 $ 32 $ 246
Advisor Group Inc 2016-09-30 42,313 Added More 3,769 $ 28 $ 317
First Manhattan Co 2016-09-30 3,000 New Holding 3,000 $ 22 $ 22
Arrowpoint Asset Management Llc 2016-09-30 2,861 New Holding 2,861 $ 21 $ 21
Integrated Wealth Management 2016-09-30 3,700 Added More 2,700 $ 20 $ 27
Pnc Financial Services Group Inc 2016-09-30 3,657 Added More 2,317 $ 17 $ 27
Pacad Investment Ltd 2016-09-30 63,000 Added More 1,700 $ 12 $ 472
Msi Financial Services Inc 2016-09-30 23,787 Added More 1,521 $ 11 $ 178
Commonwealth Bank Of Australia 2016-09-30 1,361 New Holding 1,361 $ 10 $ 10
Penserra Capital Management Llc 2016-09-30 5,347 Added More 1,232 $ 9 $ 40
Private Advisor Group Llc 2016-09-30 61,662 Added More 1,145 $ 8 $ 462
Checchi Capital Advisers Llc 2016-09-30 10,732 Added More 1,030 $ 7 $ 80
Zurcher Kantonalbank Zurich Cantonalbank 2016-09-30 8,228 Added More 1,011 $ 7 $ 61
Woodmont Investment Counsel Llc 2016-09-30 900 New Holding 900 $ 6 $ 6
Quadrant Capital Group Llc 2016-09-30 2,210 Added More 846 $ 6 $ 16
Ladenburg Thalmann Financial Services Inc 2016-09-30 36,633 Added More 832 $ 6 $ 274
Cutler Group Lp 2016-09-30 900 Added More 800 $ 6 $ 6
Pdt Partners Llc 2016-09-30 137,000 Added More 800 $ 6 $ 1,027
Rothschild Asset Management Inc 2016-09-30 407,549 Added More 773 $ 5 $ 3,056
Clinton Group Inc 2016-09-30 36,206 Added More 650 $ 4 $ 271
Qcm Cayman Ltd 2016-09-30 12,816 Added More 518 $ 3 $ 96
M T Bank Corp 2016-09-30 28,222 Added More 323 $ 2 $ 211
Thompson Davis Co Inc 2016-09-30 250 New Holding 250 $ 1 $ 1
Whittier Trust Co 2016-09-30 2,400 Added More 125 $ 0 $ 18
Utah Retirement Systems 2016-09-30 67,500 Added More 100 $ 0 $ 506
Next Financial Group Inc 2016-09-30 8,350 Added More 100 $ 0 $ 62
Investors Capital Advisory Services 2016-06-30 10,107 Added More 7 $ 0 $ 73
Focused Wealth Management Inc 2016-09-30 500 No Change 0 $ 0 $ 3
Central Trust Co 2016-09-30 3,045 No Change 0 $ 0 $ 22
Parkwood Llc 2016-09-30 62,282 No Change 0 $ 0 $ 467
Ifp Advisors Inc 2016-09-30 3,791 No Change 0 $ 0 $ 28
Garrison Bradford Associates Inc 2016-09-30 20,000 No Change 0 $ 0 $ 150
Dreman Value Management L L C 2016-09-30 425 No Change 0 $ 0 $ 3
Gateway Investment Advisers Llc 2016-09-30 19,790 No Change 0 $ 0 $ 148
American Financial Group Inc 2016-09-30 50,000 No Change 0 $ 0 $ 375
Cibc Asset Management Inc 2016-09-30 13,299 No Change 0 $ 0 $ 99
Century Capital Management Llc 2016-09-30 139,587 No Change 0 $ 0 $ 1,046
Baldwin Brothers Inc Ma 2016-09-30 100 No Change 0 $ 0 $ 0
United Services Automobile Association 2016-09-30 328,950 No Change 0 $ 0 $ 2,467
America First Investment Advisors Llc 2016-09-30 130,009 No Change 0 $ 0 $ 975
Pekin Singer Strauss Asset Management Il 2016-09-30 34,150 No Change 0 $ 0 $ 256
Smithfield Trust Co 2016-09-30 1,000 No Change 0 $ 0 $ 7
Bkd Wealth Advisors Llc 2016-09-30 45,200 No Change 0 $ 0 $ 339
Hartford Investment Management Co 2016-09-30 11,480 No Change 0 $ 0 $ 86
First Republic Investment Management Inc 2016-09-30 10,000 No Change 0 $ 0 $ 75
Panagora Asset Management Inc 2016-09-30 18,901 No Change 0 $ 0 $ 141
Apriem Advisors 2016-09-30 1,000 No Change 0 $ 0 $ 7
Entrustpermal Management Llc 2016-09-30 342,400 No Change 0 $ 0 $ 2,568
Oppenheimer Co Inc 2016-09-30 132,000 No Change 0 $ 0 $ 990
Parkside Financial Bank Trust 2016-09-30 5,154 No Change 0 $ 0 $ 38
Valley National Advisers Inc 2016-09-30 175 No Change 0 $ 0 $ 1
Her Majesty The Queen In Right Of The Province Of Alberta As 2016-09-30 90,000 No Change 0 $ 0 $ 675
Mizuho Trust Banking Co Ltd 2016-09-30 185,000 No Change 0 $ 0 $ 1,387
Highlander Capital Management Llc 2016-09-30 25,505 No Change 0 $ 0 $ 191
Teachers Retirement System Of The State Of Kentucky 2016-09-30 92,650 No Change 0 $ 0 $ 694
Cornerstone Advisors Inc 2016-09-30 935 No Change 0 $ 0 $ 7
Amp Capital Investors Ltd 2016-09-30 37,920 No Change 0 $ 0 $ 284
Frontier Capital Management Co Llc 2016-09-30 3,307 No Change 0 $ 0 $ 24
Bw Gestao De Investimentos Ltda 2016-09-30 69,822 No Change 0 $ 0 $ 523
West Family Investments Inc 2016-09-30 1,218,300 No Change 0 $ 0 $ 9,137
Winfield Associates Inc 2016-09-30 100 No Change 0 $ 0 $ 0
Strategic Global Advisors Llc 2016-09-30 233,274 No Change 0 $ 0 $ 1,749
Bronfman E L Rothschild L P 2016-09-30 6,348 No Change 0 $ 0 $ 47
Fifth Third Bancorp 2016-09-30 7,684 No Change 0 $ 0 $ 57
Proficio Capital Partners Llc 2016-09-30 81 No Change 0 $ 0 $ 0
Exane Derivatives 2016-09-30 1,218 Sold Some -31 $ -0 $ 9
Sterling Capital Management Llc 2016-09-30 79,095 Sold Some -151 $ -1 $ 593
Kanaly Trust Co 2016-09-30 1,668 Sold Some -167 $ -1 $ 12
Profund Advisors Llc 2016-09-30 21,828 Sold Some -297 $ -2 $ 163
Blb B Advisors Llc 2016-09-30 24,255 Sold Some -440 $ -3 $ 181
Simplex Trading Llc 2016-09-30 0 Sold All -683 $ -5 $ 0
American International Group Inc 2016-09-30 11,481 Sold Some -900 $ -6 $ 86
Ibm Retirement Fund 2016-09-30 36,427 Sold Some -939 $ -7 $ 273
Raymond James Financial Services Advisors Inc 2016-09-30 15,005 Sold Some -1,595 $ -11 $ 112
Livingston Group Asset Management Co Operating As Southport 2016-09-30 0 Sold All -1,971 $ -14 $ 0
Raymond James Associates 2016-09-30 571,797 Sold Some -2,609 $ -19 $ 4,288
Shell Asset Management Co 2016-09-30 66,208 Sold Some -3,036 $ -22 $ 496
Envestnet Asset Management Inc 2016-09-30 0 Sold All -3,256 $ -24 $ 0
Gsa Capital Partners Llp 2016-09-30 32,386 Sold Some -3,900 $ -29 $ 242
Cypress Wealth Advisors Llc 2016-09-30 70,456 Sold Some -3,931 $ -29 $ 528
Hsbc Holdings Plc 2016-09-30 10,735 Sold Some -4,320 $ -32 $ 80
Advisors Preferred Llc 2016-09-30 47,715 Sold Some -5,942 $ -44 $ 357
Washington Trust Bank 2016-09-30 0 Sold All -7,326 $ -54 $ 0
Adirondack Research Management Inc 2016-09-30 863,752 Sold Some -10,000 $ -75 $ 6,478
Teacher Retirement System Of Texas 2016-09-30 39,574 Sold Some -12,517 $ -93 $ 296
Proshare Advisors Llc 2016-09-30 84,122 Sold Some -12,888 $ -96 $ 630
Omers Administration Corp 2016-09-30 243,800 Sold Some -13,200 $ -99 $ 1,828
Chicago Equity Partners Llc 2016-09-30 0 Sold All -14,830 $ -111 $ 0
Quantitative Investment Management Llc 2016-09-30 0 Sold All -15,300 $ -114 $ 0
Rafferty Asset Management Llc 2016-09-30 23,753 Sold Some -16,096 $ -120 $ 178
Argent Trust Co 2016-09-30 16,028 Sold Some -18,047 $ -135 $ 120
Cadence Capital Management Llc 2016-09-30 0 Sold All -19,259 $ -144 $ 0
Kennedy Capital Management Inc 2016-09-30 805,882 Sold Some -20,329 $ -152 $ 6,044
Systematic Financial Management Lp 2016-09-30 226,782 Sold Some -20,785 $ -155 $ 1,700
Swiss National Bank 2016-09-30 597,700 Sold Some -22,600 $ -169 $ 4,482
Quantitative Systematic Strategies Llc 2016-09-30 0 Sold All -23,092 $ -173 $ 0
Cibc World Markets Inc 2016-09-30 79,876 Sold Some -25,152 $ -188 $ 599
Icon Advisers Inc Co 2016-09-30 89,400 Sold Some -25,500 $ -191 $ 670
A R T Advisors Llc 2016-09-30 0 Sold All -27,347 $ -205 $ 0
Hollencrest Securities Llc 2016-09-30 0 Sold All -27,602 $ -207 $ 0
Van Eck Associates Corp 2016-09-30 613,787 Sold Some -27,872 $ -209 $ 4,603
Stifel Financial Corp 2016-09-30 458,704 Sold Some -28,475 $ -213 $ 3,440
Cubist Systematic Strategies Llc 2016-09-30 14,002 Sold Some -28,598 $ -214 $ 105
Virtu Financial Llc 2016-09-30 0 Sold All -30,243 $ -226 $ 0
Tiemann Investment Advisors Llc 2016-09-30 0 Sold All -30,400 $ -228 $ 0
Teachers Advisors Inc 2016-09-30 1,579,145 Sold Some -45,998 $ -344 $ 11,843
Peak6 Investments L P 2016-09-30 0 Sold All -52,532 $ -393 $ 0
Sg Americas Securities Llc 2016-09-30 39,878 Sold Some -61,955 $ -464 $ 299
Deere Co 2016-09-30 25,716 Sold Some -64,279 $ -482 $ 192
Quantbot Technologies Lp 2016-09-30 1,847 Sold Some -73,554 $ -551 $ 13
Nationwide Fund Advisors 2016-09-30 787,100 Sold Some -78,000 $ -585 $ 5,903
Emerald Acquisition Ltd 2016-09-30 231,413 Sold Some -93,304 $ -699 $ 1,735
Barings Llc 2016-09-30 0 Sold All -94,400 $ -708 $ 0
Mackenzie Financial Corp 2016-09-30 29,529 Sold Some -108,899 $ -816 $ 221
Willingdon Wealth Management 2016-09-30 286,104 Sold Some -117,637 $ -882 $ 2,145
Wasatch Advisors Inc 2016-09-30 2,151,682 Sold Some -158,211 $ -1,186 $ 16,137
Thompson Siegel Walmsley Llc 2016-09-30 5,002,712 Sold Some -733,376 $ -5,500 $ 37,520
Cobalt Capital Management Inc 2016-09-30 0 Sold All -1,249,000 $ -9,367 $ 0
Rs Investment Management Co Llc 2016-06-30 0 Sold All -1,666,560 $ -12,115 $ 0